createdAt,value
2019-05-12T00:00:18.400Z,82.55
2019-05-12T00:01:18.725Z,82.76
2019-05-12T00:02:17.851Z,82.45
2019-05-12T00:03:18.722Z,82.45
2019-05-12T00:04:18.719Z,82.55
2019-05-12T00:05:21.534Z,82.35
2019-05-12T00:06:17.690Z,82.35
2019-05-12T00:07:18.039Z,82.45
2019-05-12T00:08:18.734Z,82.55
2019-05-12T00:09:18.616Z,82.45
2019-05-12T00:10:17.765Z,82.39
2019-05-12T00:11:17.973Z,82.69
2019-05-12T00:12:18.449Z,82.79
2019-05-12T00:13:18.846Z,83.06
2019-05-12T00:14:17.788Z,83.51
2019-05-12T00:15:18.823Z,83.10
2019-05-12T00:16:21.414Z,82.49
2019-05-12T00:17:18.640Z,83.10
2019-05-12T00:18:18.052Z,82.79
2019-05-12T00:19:17.932Z,82.59
2019-05-12T00:20:18.186Z,82.59
2019-05-12T00:21:17.670Z,82.39
2019-05-12T00:22:18.093Z,82.90
2019-05-12T00:23:25.021Z,82.49
2019-05-12T00:24:18.697Z,82.79
2019-05-12T00:25:18.124Z,82.79
2019-05-12T00:26:18.223Z,82.83
2019-05-12T00:27:21.286Z,83.00
2019-05-12T00:28:17.882Z,83.04
2019-05-12T00:29:18.314Z,82.79
2019-05-12T00:30:18.417Z,82.49
2019-05-12T00:31:16.218Z,82.79
2019-05-12T00:32:17.973Z,83.00
2019-05-12T00:33:17.988Z,82.73
2019-05-12T00:34:18.217Z,83.41
2019-05-12T00:35:18.148Z,83.41
2019-05-12T00:36:18.450Z,83.45
2019-05-12T00:37:18.030Z,83.20
2019-05-12T00:38:21.178Z,83.14
2019-05-12T00:39:16.134Z,83.45
2019-05-12T00:40:16.118Z,83.10
2019-05-12T00:41:18.157Z,83.10
2019-05-12T00:42:18.153Z,83.34
2019-05-12T00:43:16.100Z,83.20
2019-05-12T00:44:18.208Z,83.45
2019-05-12T00:45:18.020Z,83.51
2019-05-12T00:46:18.235Z,83.10
2019-05-12T00:47:16.041Z,83.41
2019-05-12T00:48:17.812Z,83.82
2019-05-12T00:49:21.044Z,83.61
2019-05-12T00:50:18.322Z,83.20
2019-05-12T00:51:18.026Z,83.31
2019-05-12T00:52:15.989Z,83.31
2019-05-12T00:53:15.984Z,83.31
2019-05-12T00:54:17.827Z,83.00
2019-05-12T00:55:18.291Z,83.10
2019-05-12T00:56:17.710Z,83.31
2019-05-12T00:57:18.086Z,83.25
2019-05-12T00:58:19.095Z,83.20
2019-05-12T00:59:15.910Z,83.14
2019-05-12T01:00:20.922Z,83.34
2019-05-12T01:01:18.269Z,83.14
2019-05-12T01:02:18.193Z,83.55
2019-05-12T01:03:15.883Z,83.25
2019-05-12T01:04:17.555Z,83.34
2019-05-12T01:05:17.741Z,83.76
2019-05-12T01:06:17.751Z,83.76
2019-05-12T01:07:15.824Z,83.76
2019-05-12T01:08:15.826Z,84.61
2019-05-12T01:09:17.662Z,84.41
2019-05-12T01:10:17.942Z,84.52
2019-05-12T01:11:20.800Z,84.20
2019-05-12T01:12:18.007Z,84.20
2019-05-12T01:13:15.769Z,84.52
2019-05-12T01:14:15.749Z,84.20
2019-05-12T01:15:17.715Z,84.10
2019-05-12T01:16:15.725Z,84.52
2019-05-12T01:17:17.733Z,84.31
2019-05-12T01:18:17.980Z,84.61
2019-05-12T01:19:18.347Z,84.31
2019-05-12T01:20:17.713Z,84.41
2019-05-12T01:21:18.311Z,84.20
2019-05-12T01:22:20.676Z,84.41
2019-05-12T01:23:15.660Z,84.41
2019-05-12T01:24:15.636Z,84.92
2019-05-12T01:25:17.554Z,84.52
2019-05-12T01:26:17.748Z,84.41
2019-05-12T01:27:17.970Z,84.82
2019-05-12T01:28:15.602Z,84.92
2019-05-12T01:29:17.593Z,84.72
2019-05-12T01:30:17.926Z,84.52
2019-05-12T01:31:17.890Z,85.03
2019-05-12T01:32:15.595Z,85.54
2019-05-12T01:33:20.569Z,85.95
2019-05-12T01:34:15.582Z,84.92
2019-05-12T01:35:15.520Z,84.61
2019-05-12T01:36:15.513Z,84.72
2019-05-12T01:37:15.498Z,84.55
2019-05-12T01:38:15.514Z,85.13
2019-05-12T01:39:15.476Z,85.03
2019-05-12T01:40:15.485Z,86.05
2019-05-12T01:41:17.503Z,85.95
2019-05-12T01:42:15.433Z,85.44
2019-05-12T01:43:15.435Z,85.54
2019-05-12T01:44:20.464Z,85.68
2019-05-12T01:45:17.857Z,85.74
2019-05-12T01:46:15.405Z,85.68
2019-05-12T01:47:15.384Z,85.64
2019-05-12T01:48:15.367Z,85.95
2019-05-12T01:49:15.378Z,86.05
2019-05-12T01:50:17.623Z,85.78
2019-05-12T01:51:17.306Z,85.47
2019-05-12T01:52:17.706Z,85.17
2019-05-12T01:53:15.325Z,85.78
2019-05-12T01:54:15.399Z,86.19
2019-05-12T01:55:20.323Z,86.09
2019-05-12T01:56:15.276Z,86.40
2019-05-12T01:57:15.270Z,86.09
2019-05-12T01:58:15.256Z,85.58
2019-05-12T01:59:15.271Z,85.89
2019-05-12T02:00:15.244Z,85.58
2019-05-12T02:01:15.227Z,85.89
2019-05-12T02:02:17.709Z,85.99
2019-05-12T02:03:15.205Z,86.09
2019-05-12T02:04:15.212Z,85.82
2019-05-12T02:05:15.193Z,85.89
2019-05-12T02:06:20.192Z,85.68
2019-05-12T02:07:15.160Z,85.58
2019-05-12T02:08:15.147Z,85.62
2019-05-12T02:09:15.155Z,85.47
2019-05-12T02:10:15.129Z,85.72
2019-05-12T02:11:15.112Z,86.24
2019-05-12T02:12:15.113Z,85.62
2019-05-12T02:13:15.095Z,85.11
2019-05-12T02:14:15.106Z,85.82
2019-05-12T02:15:15.072Z,85.21
2019-05-12T02:16:15.075Z,86.44
2019-05-12T02:17:20.071Z,86.33
2019-05-12T02:18:15.055Z,85.52
2019-05-12T02:19:15.053Z,85.72
2019-05-12T02:20:15.012Z,85.93
2019-05-12T02:21:15.010Z,85.41
2019-05-12T02:22:15.007Z,84.90
2019-05-12T02:23:14.994Z,85.00
2019-05-12T02:24:24.361Z,84.28
2019-05-12T02:25:18.387Z,84.18
2019-05-12T02:26:14.948Z,84.59
2019-05-12T02:27:14.936Z,84.39
2019-05-12T02:28:19.952Z,84.18
2019-05-12T02:29:14.933Z,84.28
2019-05-12T02:30:14.903Z,84.28
2019-05-12T02:31:14.890Z,84.59
2019-05-12T02:32:14.905Z,84.28
2019-05-12T02:33:15.977Z,83.87
2019-05-12T02:34:15.940Z,83.67
2019-05-12T02:35:16.124Z,84.08
2019-05-12T02:36:15.265Z,83.46
2019-05-12T02:37:15.439Z,83.26
2019-05-12T02:38:14.818Z,83.50
2019-05-12T02:39:19.866Z,83.26
2019-05-12T02:40:15.310Z,83.46
2019-05-12T02:41:15.702Z,83.26
2019-05-12T02:42:15.601Z,83.46
2019-05-12T02:43:15.409Z,83.36
2019-05-12T02:44:15.211Z,83.81
2019-05-12T02:45:15.514Z,82.95
2019-05-12T02:46:15.593Z,83.05
2019-05-12T02:47:16.122Z,83.36
2019-05-12T02:48:14.784Z,82.95
2019-05-12T02:49:15.848Z,82.84
2019-05-12T02:50:19.721Z,82.75
2019-05-12T02:51:15.753Z,82.68
2019-05-12T02:52:15.401Z,82.68
2019-05-12T02:53:14.784Z,82.75
2019-05-12T02:54:14.639Z,82.03
2019-05-12T02:55:15.076Z,82.37
2019-05-12T02:56:15.285Z,81.86
2019-05-12T02:57:14.614Z,81.86
2019-05-12T02:58:15.423Z,82.27
2019-05-12T02:59:16.240Z,82.06
2019-05-12T03:00:15.896Z,81.65
2019-05-12T03:01:19.587Z,82.27
2019-05-12T03:02:14.553Z,82.06
2019-05-12T03:03:14.956Z,81.45
2019-05-12T03:04:14.741Z,80.83
2019-05-12T03:05:14.997Z,80.93
2019-05-12T03:06:15.265Z,80.83
2019-05-12T03:07:15.496Z,81.04
2019-05-12T03:08:15.429Z,80.32
2019-05-12T03:09:15.250Z,80.11
2019-05-12T03:10:14.789Z,79.91
2019-05-12T03:11:14.908Z,79.91
2019-05-12T03:12:19.462Z,80.11
2019-05-12T03:13:15.067Z,80.52
2019-05-12T03:14:15.664Z,80.52
2019-05-12T03:15:15.299Z,80.52
2019-05-12T03:16:15.128Z,80.42
2019-05-12T03:17:15.345Z,80.32
2019-05-12T03:18:14.823Z,80.11
2019-05-12T03:19:15.158Z,80.32
2019-05-12T03:20:15.329Z,79.91
2019-05-12T03:21:15.403Z,80.11
2019-05-12T03:22:14.381Z,80.42
2019-05-12T03:23:19.790Z,80.32
2019-05-12T03:24:17.367Z,80.32
2019-05-12T03:25:20.838Z,80.52
2019-05-12T03:26:15.611Z,80.21
2019-05-12T03:27:17.436Z,80.11
2019-05-12T03:28:15.993Z,80.21
2019-05-12T03:29:14.959Z,80.35
2019-05-12T03:30:19.171Z,80.77
2019-05-12T03:31:21.991Z,80.97
2019-05-12T03:32:17.663Z,80.77
2019-05-12T03:33:19.708Z,80.77
2019-05-12T03:34:20.816Z,80.35
2019-05-12T03:35:17.623Z,80.35
2019-05-12T03:36:17.970Z,80.97
2019-05-12T03:37:17.770Z,80.56
2019-05-12T03:38:14.980Z,80.25
2019-05-12T03:39:14.946Z,80.15
2019-05-12T03:40:14.539Z,80.97
2019-05-12T03:41:14.945Z,80.25
2019-05-12T03:42:14.614Z,80.35
2019-05-12T03:43:14.823Z,79.63
2019-05-12T03:44:15.122Z,79.84
2019-05-12T03:45:19.101Z,80.05
2019-05-12T03:46:15.265Z,79.84
2019-05-12T03:47:14.565Z,79.94
2019-05-12T03:48:15.066Z,79.63
2019-05-12T03:49:15.320Z,79.33
2019-05-12T03:50:14.950Z,79.22
2019-05-12T03:51:15.447Z,79.43
2019-05-12T03:52:15.278Z,79.53
2019-05-12T03:53:15.608Z,79.53
2019-05-12T03:54:15.310Z,79.22
2019-05-12T03:55:30.755Z,78.71
2019-05-12T03:56:19.997Z,79.02
2019-05-12T03:57:15.025Z,78.30
2019-05-12T03:58:15.241Z,78.71
2019-05-12T03:59:14.999Z,78.57
2019-05-12T04:00:15.844Z,78.30
2019-05-12T04:01:15.065Z,78.27
2019-05-12T04:02:15.140Z,78.06
2019-05-12T04:03:15.280Z,78.09
2019-05-12T04:04:15.330Z,77.89
2019-05-12T04:05:15.478Z,77.23
2019-05-12T04:06:15.485Z,77.23
2019-05-12T04:07:18.851Z,77.89
2019-05-12T04:08:15.668Z,77.37
2019-05-12T04:09:15.451Z,77.37
2019-05-12T04:10:15.644Z,77.27
2019-05-12T04:11:14.641Z,77.17
2019-05-12T04:12:14.872Z,77.06
2019-05-12T04:13:15.066Z,77.17
2019-05-12T04:14:14.670Z,76.86
2019-05-12T04:15:15.187Z,77.06
2019-05-12T04:16:16.393Z,76.97
2019-05-12T04:17:14.919Z,76.79
2019-05-12T04:18:18.734Z,77.68
2019-05-12T04:19:14.623Z,77.48
2019-05-12T04:20:15.252Z,77.48
2019-05-12T04:21:15.603Z,77.58
2019-05-12T04:22:15.349Z,77.27
2019-05-12T04:23:15.472Z,77.37
2019-05-12T04:24:14.287Z,77.37
2019-05-12T04:25:14.657Z,77.58
2019-05-12T04:26:16.998Z,77.17
2019-05-12T04:27:15.080Z,77.37
2019-05-12T04:28:14.999Z,77.34
2019-05-12T04:29:18.605Z,77.37
2019-05-12T04:30:14.419Z,77.55
2019-05-12T04:31:15.504Z,77.37
2019-05-12T04:32:14.350Z,78.09
2019-05-12T04:33:15.421Z,78.09
2019-05-12T04:34:15.656Z,77.58
2019-05-12T04:35:15.128Z,78.09
2019-05-12T04:36:14.815Z,78.09
2019-05-12T04:37:14.812Z,78.71
2019-05-12T04:38:14.964Z,79.49
2019-05-12T04:39:14.706Z,78.40
2019-05-12T04:40:18.488Z,78.30
2019-05-12T04:41:14.556Z,77.95
2019-05-12T04:42:14.877Z,77.78
2019-05-12T04:43:14.614Z,78.06
2019-05-12T04:44:15.161Z,78.06
2019-05-12T04:45:15.690Z,78.50
2019-05-12T04:46:14.499Z,78.27
2019-05-12T04:47:14.554Z,78.40
2019-05-12T04:48:15.532Z,78.71
2019-05-12T04:49:15.781Z,78.61
2019-05-12T04:50:15.650Z,77.99
2019-05-12T04:51:18.363Z,78.20
2019-05-12T04:52:15.531Z,78.30
2019-05-12T04:53:14.412Z,78.09
2019-05-12T04:54:15.250Z,78.40
2019-05-12T04:55:15.095Z,78.40
2019-05-12T04:56:19.124Z,78.20
2019-05-12T04:57:15.055Z,77.78
2019-05-12T04:58:15.770Z,78.09
2019-05-12T04:59:15.753Z,78.50
2019-05-12T05:00:15.752Z,77.99
2019-05-12T05:01:15.655Z,78.20
2019-05-12T05:02:18.255Z,77.06
2019-05-12T05:03:14.235Z,77.78
2019-05-12T05:04:15.501Z,77.27
2019-05-12T05:05:14.460Z,77.48
2019-05-12T05:06:14.889Z,77.58
2019-05-12T05:07:15.048Z,77.58
2019-05-12T05:08:14.562Z,77.68
2019-05-12T05:09:14.434Z,77.03
2019-05-12T05:10:14.589Z,76.86
2019-05-12T05:11:14.779Z,77.13
2019-05-12T05:12:13.936Z,75.93
2019-05-12T05:13:18.118Z,76.21
2019-05-12T05:14:14.312Z,76.97
2019-05-12T05:15:14.625Z,76.62
2019-05-12T05:16:14.321Z,76.42
2019-05-12T05:17:15.014Z,76.21
2019-05-12T05:18:13.493Z,76.21
2019-05-12T05:19:13.880Z,76.14
2019-05-12T05:20:13.568Z,75.90
2019-05-12T05:21:13.866Z,77.03
2019-05-12T05:22:13.725Z,75.90
2019-05-12T05:23:14.172Z,76.35
2019-05-12T05:24:17.991Z,76.10
2019-05-12T05:25:14.478Z,76.04
2019-05-12T05:26:22.167Z,75.90
2019-05-12T05:27:13.935Z,76.31
2019-05-12T05:28:14.563Z,76.00
2019-05-12T05:29:13.658Z,75.49
2019-05-12T05:30:13.871Z,75.42
2019-05-12T05:31:14.042Z,75.93
2019-05-12T05:32:14.075Z,76.10
2019-05-12T05:33:14.480Z,76.82
2019-05-12T05:34:14.881Z,75.80
2019-05-12T05:35:17.904Z,76.10
2019-05-12T05:36:15.076Z,76.21
2019-05-12T05:37:14.572Z,76.21
2019-05-12T05:38:18.642Z,75.59
2019-05-12T05:39:14.098Z,75.70
2019-05-12T05:40:14.160Z,75.59
2019-05-12T05:41:13.457Z,75.18
2019-05-12T05:42:13.503Z,76.00
2019-05-12T05:43:17.875Z,75.80
2019-05-12T05:44:14.006Z,75.90
2019-05-12T05:45:19.657Z,75.29
2019-05-12T05:46:18.746Z,75.49
2019-05-12T05:47:13.845Z,76.00
2019-05-12T05:48:13.564Z,76.10
2019-05-12T05:49:13.355Z,75.90
2019-05-12T05:50:13.547Z,75.49
2019-05-12T05:51:13.650Z,76.00
2019-05-12T05:52:13.731Z,75.18
2019-05-12T05:53:17.935Z,74.98
2019-05-12T05:54:13.837Z,75.70
2019-05-12T05:55:19.926Z,74.57
2019-05-12T05:56:14.382Z,75.29
2019-05-12T05:57:20.098Z,74.87
2019-05-12T05:58:15.467Z,75.90
2019-05-12T05:59:14.926Z,74.98
2019-05-12T06:00:20.328Z,75.70
2019-05-12T06:01:13.914Z,75.18
2019-05-12T06:02:13.847Z,75.38
2019-05-12T06:03:22.270Z,75.08
2019-05-12T06:04:14.074Z,76.10
2019-05-12T06:05:14.479Z,74.98
2019-05-12T06:06:15.163Z,75.90
2019-05-12T06:07:14.341Z,75.80
2019-05-12T06:08:20.872Z,75.70
2019-05-12T06:09:14.132Z,75.80
2019-05-12T06:10:14.526Z,74.77
2019-05-12T06:11:14.676Z,75.38
2019-05-12T06:12:13.512Z,75.18
2019-05-12T06:13:14.413Z,75.08
2019-05-12T06:14:14.051Z,74.98
2019-05-12T06:15:13.582Z,75.29
2019-05-12T06:16:20.278Z,75.29
2019-05-12T06:17:14.603Z,75.08
2019-05-12T06:18:13.596Z,75.90
2019-05-12T06:19:17.395Z,75.49
2019-05-12T06:20:13.475Z,75.08
2019-05-12T06:21:13.747Z,75.15
2019-05-12T06:22:15.136Z,75.38
2019-05-12T06:23:14.753Z,75.29
2019-05-12T06:24:15.646Z,75.38
2019-05-12T06:25:16.111Z,74.87
2019-05-12T06:26:14.055Z,74.67
2019-05-12T06:27:16.197Z,73.95
2019-05-12T06:28:14.575Z,73.74
2019-05-12T06:29:20.103Z,73.74
2019-05-12T06:30:18.260Z,74.36
2019-05-12T06:31:13.831Z,73.64
2019-05-12T06:32:14.153Z,72.92
2019-05-12T06:33:14.255Z,72.31
2019-05-12T06:34:15.273Z,72.31
2019-05-12T06:35:15.096Z,73.02
2019-05-12T06:36:13.746Z,72.92
2019-05-12T06:37:16.917Z,72.92
2019-05-12T06:38:13.569Z,72.72
2019-05-12T06:39:19.030Z,72.20
2019-05-12T06:40:14.122Z,72.31
2019-05-12T06:41:20.831Z,72.20
2019-05-12T06:42:16.781Z,72.20
2019-05-12T06:43:13.897Z,72.10
2019-05-12T06:44:17.187Z,71.79
2019-05-12T06:45:14.128Z,71.89
2019-05-12T06:46:20.430Z,72.00
2019-05-12T06:47:14.340Z,71.69
2019-05-12T06:48:14.023Z,72.00
2019-05-12T06:49:17.131Z,71.79
2019-05-12T06:50:14.596Z,71.38
2019-05-12T06:51:17.010Z,71.69
2019-05-12T06:52:18.024Z,71.08
2019-05-12T06:53:13.987Z,71.14
2019-05-12T06:54:14.780Z,70.73
2019-05-12T06:55:14.399Z,70.84
2019-05-12T06:56:17.583Z,70.32
2019-05-12T06:57:22.166Z,69.81
2019-05-12T06:58:13.959Z,70.73
2019-05-12T06:59:14.652Z,70.12
2019-05-12T07:00:14.445Z,71.25
2019-05-12T07:01:19.143Z,70.73
2019-05-12T07:02:13.852Z,70.73
2019-05-12T07:03:19.511Z,71.04
2019-05-12T07:04:14.153Z,71.25
2019-05-12T07:05:14.443Z,71.66
2019-05-12T07:06:17.540Z,71.25
2019-05-12T07:07:14.147Z,71.04
2019-05-12T07:08:11.826Z,70.22
2019-05-12T07:09:16.321Z,70.63
2019-05-12T07:10:33.766Z,70.73
2019-05-12T07:11:14.277Z,70.94
2019-05-12T07:12:13.757Z,70.12
2019-05-12T07:13:14.714Z,70.42
2019-05-12T07:14:22.384Z,70.22
2019-05-12T07:15:14.264Z,69.50
2019-05-12T07:16:19.175Z,70.32
2019-05-12T07:17:14.537Z,70.22
2019-05-12T07:18:14.056Z,70.12
2019-05-12T07:19:17.454Z,69.91
2019-05-12T07:20:14.750Z,70.12
2019-05-12T07:21:15.508Z,69.50
2019-05-12T07:22:22.360Z,69.40
2019-05-12T07:23:14.280Z,70.36
2019-05-12T07:24:11.663Z,69.74
2019-05-12T07:25:17.189Z,70.73
2019-05-12T07:26:17.541Z,70.32
2019-05-12T07:27:14.074Z,70.42
2019-05-12T07:28:11.632Z,70.12
2019-05-12T07:29:13.390Z,70.73
2019-05-12T07:30:13.608Z,70.97
2019-05-12T07:31:14.082Z,71.08
2019-05-12T07:32:16.416Z,71.04
2019-05-12T07:33:14.618Z,71.35
2019-05-12T07:34:13.551Z,70.94
2019-05-12T07:35:11.527Z,70.73
2019-05-12T07:36:16.537Z,70.32
2019-05-12T07:37:11.502Z,70.53
2019-05-12T07:38:12.087Z,70.63
2019-05-12T07:39:13.584Z,70.63
2019-05-12T07:40:13.638Z,70.53
2019-05-12T07:41:11.455Z,69.70
2019-05-12T07:42:13.318Z,70.32
2019-05-12T07:43:16.185Z,70.46
2019-05-12T07:44:14.153Z,71.08
2019-05-12T07:45:20.030Z,70.97
2019-05-12T07:46:13.420Z,70.97
2019-05-12T07:47:22.664Z,71.08
2019-05-12T07:48:13.851Z,71.08
2019-05-12T07:49:11.368Z,71.48
2019-05-12T07:50:16.325Z,71.59
2019-05-12T07:51:13.751Z,71.97
2019-05-12T07:52:13.660Z,72.17
2019-05-12T07:53:11.319Z,71.76
2019-05-12T07:54:11.333Z,71.25
2019-05-12T07:55:11.302Z,71.76
2019-05-12T07:56:11.314Z,71.45
2019-05-12T07:57:14.910Z,71.04
2019-05-12T07:58:19.174Z,71.35
2019-05-12T07:59:13.457Z,71.66
2019-05-12T08:00:20.918Z,71.66
2019-05-12T08:01:14.372Z,71.35
2019-05-12T08:02:11.222Z,71.25
2019-05-12T08:03:16.257Z,71.11
2019-05-12T08:04:13.493Z,71.11
2019-05-12T08:05:18.424Z,70.50
2019-05-12T08:06:14.106Z,70.42
2019-05-12T08:07:11.164Z,71.01
2019-05-12T08:08:11.196Z,71.14
2019-05-12T08:09:16.167Z,71.14
2019-05-12T08:10:17.729Z,71.25
2019-05-12T08:11:14.755Z,71.35
2019-05-12T08:12:19.434Z,71.86
2019-05-12T08:13:14.617Z,71.76
2019-05-12T08:14:13.731Z,71.66
2019-05-12T08:15:14.046Z,72.17
2019-05-12T08:16:11.085Z,71.76
2019-05-12T08:17:17.054Z,71.86
2019-05-12T08:18:14.005Z,72.06
2019-05-12T08:19:17.194Z,71.97
2019-05-12T08:20:17.038Z,72.14
2019-05-12T08:21:11.025Z,72.38
2019-05-12T08:22:10.999Z,72.38
2019-05-12T08:23:10.985Z,71.62
2019-05-12T08:24:10.975Z,71.66
2019-05-12T08:25:13.221Z,71.97
2019-05-12T08:26:16.175Z,72.17
2019-05-12T08:27:14.269Z,72.06
2019-05-12T08:28:15.578Z,72.27
2019-05-12T08:29:17.067Z,72.17
2019-05-12T08:30:13.885Z,72.06
2019-05-12T08:31:15.958Z,72.55
2019-05-12T08:32:15.958Z,72.27
2019-05-12T08:33:14.337Z,72.24
2019-05-12T08:34:11.557Z,71.86
2019-05-12T08:35:10.856Z,72.78
2019-05-12T08:36:12.938Z,72.78
2019-05-12T08:37:10.828Z,72.27
2019-05-12T08:38:10.818Z,72.48
2019-05-12T08:39:11.769Z,72.27
2019-05-12T08:40:11.795Z,72.06
2019-05-12T08:41:10.791Z,72.38
2019-05-12T08:42:15.807Z,72.38
2019-05-12T08:43:10.994Z,72.58
2019-05-12T08:44:10.755Z,72.34
2019-05-12T08:45:17.003Z,71.62
2019-05-12T08:46:12.857Z,72.24
2019-05-12T08:47:12.011Z,72.14
2019-05-12T08:48:16.994Z,71.62
2019-05-12T08:49:14.198Z,71.28
2019-05-12T08:50:10.691Z,71.39
2019-05-12T08:51:16.922Z,70.97
2019-05-12T08:52:14.049Z,70.56
2019-05-12T08:53:20.806Z,71.28
2019-05-12T08:54:14.061Z,70.46
2019-05-12T08:55:13.836Z,70.46
2019-05-12T08:56:14.686Z,69.95
2019-05-12T08:57:14.191Z,69.64
2019-05-12T08:58:10.597Z,69.81
2019-05-12T08:59:15.589Z,69.61
2019-05-12T09:00:13.475Z,69.71
2019-05-12T09:01:10.562Z,69.61
2019-05-12T09:02:10.986Z,69.57
2019-05-12T09:03:10.557Z,68.96
2019-05-12T09:04:18.238Z,68.48
2019-05-12T09:05:10.520Z,68.89
2019-05-12T09:06:15.440Z,69.30
2019-05-12T09:07:13.733Z,69.30
2019-05-12T09:08:10.489Z,69.20
2019-05-12T09:09:10.477Z,69.20
2019-05-12T09:10:10.464Z,69.57
2019-05-12T09:11:10.454Z,69.17
2019-05-12T09:12:10.453Z,69.57
2019-05-12T09:13:10.431Z,69.47
2019-05-12T09:14:10.422Z,69.61
2019-05-12T09:15:15.432Z,69.78
2019-05-12T09:16:10.411Z,70.29
2019-05-12T09:17:10.404Z,70.29
2019-05-12T09:18:10.376Z,69.68
2019-05-12T09:19:15.462Z,69.57
2019-05-12T09:20:13.533Z,69.37
2019-05-12T09:21:10.347Z,69.68
2019-05-12T09:22:20.394Z,69.17
2019-05-12T09:23:13.465Z,69.17
2019-05-12T09:24:13.607Z,69.47
2019-05-12T09:25:11.304Z,69.06
2019-05-12T09:26:18.644Z,68.83
2019-05-12T09:27:13.471Z,68.65
2019-05-12T09:28:10.266Z,68.65
2019-05-12T09:29:10.264Z,68.52
2019-05-12T09:30:10.245Z,68.41
2019-05-12T09:31:10.238Z,68.55
2019-05-12T09:32:10.234Z,68.52
2019-05-12T09:33:10.228Z,68.41
2019-05-12T09:34:13.507Z,68.52
2019-05-12T09:35:11.188Z,68.11
2019-05-12T09:36:11.410Z,68.11
2019-05-12T09:37:16.199Z,68.01
2019-05-12T09:38:11.320Z,68.38
2019-05-12T09:39:11.143Z,68.18
2019-05-12T09:40:10.133Z,68.18
2019-05-12T09:41:10.122Z,67.67
2019-05-12T09:42:10.123Z,67.36
2019-05-12T09:43:10.841Z,67.97
2019-05-12T09:44:10.089Z,67.36
2019-05-12T09:45:10.640Z,67.36
2019-05-12T09:46:10.065Z,67.57
2019-05-12T09:47:21.810Z,67.49
2019-05-12T09:48:16.078Z,67.87
2019-05-12T09:49:10.032Z,67.67
2019-05-12T09:50:15.275Z,67.16
2019-05-12T09:51:13.184Z,67.16
2019-05-12T09:52:13.976Z,67.26
2019-05-12T09:53:11.631Z,67.46
2019-05-12T09:54:09.977Z,67.97
2019-05-12T09:55:09.966Z,67.57
2019-05-12T09:56:09.957Z,67.26
2019-05-12T09:57:09.944Z,67.26
2019-05-12T09:58:14.149Z,67.33
2019-05-12T09:59:21.326Z,67.05
2019-05-12T10:00:13.569Z,67.64
2019-05-12T10:01:09.918Z,67.64
2019-05-12T10:02:10.575Z,67.33
2019-05-12T10:03:10.895Z,67.23
2019-05-12T10:04:10.466Z,67.57
2019-05-12T10:05:10.857Z,67.64
2019-05-12T10:06:11.307Z,67.64
2019-05-12T10:07:10.830Z,67.64
2019-05-12T10:08:09.837Z,66.89
2019-05-12T10:09:17.676Z,67.19
2019-05-12T10:10:15.820Z,66.58
2019-05-12T10:11:10.188Z,66.38
2019-05-12T10:12:10.776Z,65.94
2019-05-12T10:13:09.779Z,66.04
2019-05-12T10:14:11.027Z,65.94
2019-05-12T10:15:09.744Z,66.11
2019-05-12T10:16:09.731Z,66.11
2019-05-12T10:17:09.728Z,65.67
2019-05-12T10:18:11.342Z,65.37
2019-05-12T10:19:09.697Z,64.86
2019-05-12T10:20:09.688Z,65.06
2019-05-12T10:21:15.571Z,64.24
2019-05-12T10:22:09.666Z,64.22
2019-05-12T10:23:10.249Z,63.93
2019-05-12T10:24:10.648Z,63.43
2019-05-12T10:25:09.647Z,63.43
2019-05-12T10:26:11.666Z,63.90
2019-05-12T10:27:09.611Z,63.29
2019-05-12T10:28:11.876Z,63.40
2019-05-12T10:29:17.525Z,63.49
2019-05-12T10:30:12.395Z,63.47
2019-05-12T10:31:09.586Z,63.78
2019-05-12T10:32:14.579Z,63.67
2019-05-12T10:33:09.563Z,62.96
2019-05-12T10:34:09.600Z,62.65
2019-05-12T10:35:12.541Z,62.96
2019-05-12T10:36:10.522Z,62.35
2019-05-12T10:37:09.519Z,62.35
2019-05-12T10:38:10.894Z,61.94
2019-05-12T10:39:09.486Z,62.65
2019-05-12T10:40:09.468Z,62.78
2019-05-12T10:41:09.458Z,62.58
2019-05-12T10:42:09.478Z,62.35
2019-05-12T10:43:14.475Z,62.35
2019-05-12T10:44:09.423Z,62.14
2019-05-12T10:45:10.838Z,62.37
2019-05-12T10:46:10.398Z,62.58
2019-05-12T10:47:09.394Z,62.78
2019-05-12T10:48:09.399Z,62.45
2019-05-12T10:49:09.391Z,62.24
2019-05-12T10:50:09.360Z,61.02
2019-05-12T10:51:09.344Z,61.53
2019-05-12T10:52:09.357Z,61.43
2019-05-12T10:53:09.878Z,61.32
2019-05-12T10:54:15.787Z,61.09
2019-05-12T10:55:09.305Z,60.89
2019-05-12T10:56:09.294Z,61.09
2019-05-12T10:57:09.354Z,60.58
2019-05-12T10:58:09.276Z,60.48
2019-05-12T10:59:09.257Z,60.99
2019-05-12T11:00:09.304Z,60.35
2019-05-12T11:01:09.233Z,60.25
2019-05-12T11:02:09.233Z,59.41
2019-05-12T11:03:12.195Z,59.78
2019-05-12T11:04:09.218Z,58.97
2019-05-12T11:05:21.324Z,58.33
2019-05-12T11:06:10.175Z,58.92
2019-05-12T11:07:09.192Z,57.90
2019-05-12T11:08:11.196Z,57.56
2019-05-12T11:09:09.141Z,57.90
2019-05-12T11:10:15.126Z,57.69
2019-05-12T11:11:10.118Z,57.59
2019-05-12T11:12:09.109Z,58.81
2019-05-12T11:13:10.040Z,56.80
2019-05-12T11:14:09.098Z,54.79
2019-05-12T11:15:09.075Z,53.25
2019-05-12T11:16:16.740Z,53.91
2019-05-12T11:17:09.509Z,54.00
2019-05-12T11:18:09.126Z,54.54
2019-05-12T11:19:10.614Z,54.00
2019-05-12T11:20:09.044Z,55.05
2019-05-12T11:21:09.012Z,53.91
2019-05-12T11:22:09.009Z,54.54
2019-05-12T11:23:08.985Z,55.12
2019-05-12T11:24:08.985Z,53.34
2019-05-12T11:25:08.962Z,51.25
2019-05-12T11:26:08.953Z,49.78
2019-05-12T11:27:13.963Z,49.68
2019-05-12T11:28:08.929Z,51.47
2019-05-12T11:29:08.942Z,51.88
2019-05-12T11:30:08.907Z,51.55
2019-05-12T11:31:08.898Z,51.42
2019-05-12T11:32:08.885Z,51.45
2019-05-12T11:33:08.877Z,51.53
2019-05-12T11:34:08.876Z,51.32
2019-05-12T11:35:08.852Z,51.65
2019-05-12T11:36:08.840Z,51.57
2019-05-12T11:37:08.832Z,51.39
2019-05-12T11:38:13.851Z,51.82
2019-05-12T11:39:08.822Z,51.93
2019-05-12T11:40:08.800Z,52.86
2019-05-12T11:41:10.151Z,53.06
2019-05-12T11:42:09.771Z,53.37
2019-05-12T11:43:08.763Z,53.14
2019-05-12T11:44:08.763Z,51.67
2019-05-12T11:45:08.738Z,51.82
2019-05-12T11:46:08.727Z,52.76
2019-05-12T11:47:08.722Z,53.47
2019-05-12T11:48:10.349Z,54.00
2019-05-12T11:49:13.962Z,54.41
2019-05-12T11:50:10.066Z,54.86
2019-05-12T11:51:08.684Z,54.72
2019-05-12T11:52:15.374Z,56.65
2019-05-12T11:53:09.646Z,54.33
2019-05-12T11:54:10.490Z,54.59
2019-05-12T11:55:08.627Z,53.07
2019-05-12T11:56:09.386Z,53.40
2019-05-12T11:57:08.604Z,54.77
2019-05-12T11:58:11.362Z,54.64
2019-05-12T11:59:08.594Z,52.84
2019-05-12T12:00:13.785Z,51.68
2019-05-12T12:01:08.561Z,50.42
2019-05-12T12:02:08.553Z,50.32
2019-05-12T12:03:13.128Z,51.30
2019-05-12T12:04:09.539Z,52.56
2019-05-12T12:05:08.544Z,53.52
2019-05-12T12:06:08.504Z,53.40
2019-05-12T12:07:08.494Z,51.50
2019-05-12T12:08:08.483Z,49.71
2019-05-12T12:09:09.317Z,48.15
2019-05-12T12:10:09.460Z,48.41
2019-05-12T12:11:18.570Z,46.97
2019-05-12T12:12:09.441Z,45.26
2019-05-12T12:13:08.430Z,45.86
2019-05-12T12:14:10.547Z,45.48
2019-05-12T12:15:08.417Z,46.71
2019-05-12T12:16:11.170Z,45.97
2019-05-12T12:17:08.383Z,45.49
2019-05-12T12:18:13.627Z,46.25
2019-05-12T12:19:09.365Z,43.46
2019-05-12T12:20:08.385Z,42.33
2019-05-12T12:21:08.345Z,41.29
2019-05-12T12:22:14.639Z,41.57
2019-05-12T12:23:10.977Z,42.10
2019-05-12T12:24:08.305Z,43.97
2019-05-12T12:25:10.811Z,45.30
2019-05-12T12:26:08.285Z,43.93
2019-05-12T12:27:08.278Z,43.32
2019-05-12T12:28:08.261Z,44.90
2019-05-12T12:29:08.257Z,45.04
2019-05-12T12:30:18.685Z,47.00
2019-05-12T12:31:09.232Z,47.35
2019-05-12T12:32:09.810Z,48.03
2019-05-12T12:33:14.470Z,46.72
2019-05-12T12:34:08.195Z,45.61
2019-05-12T12:35:11.918Z,47.23
2019-05-12T12:36:09.177Z,47.38
2019-05-12T12:37:08.165Z,47.88
2019-05-12T12:38:08.151Z,48.99
2019-05-12T12:39:08.140Z,48.79
2019-05-12T12:40:08.142Z,49.22
2019-05-12T12:41:08.136Z,49.32
2019-05-12T12:42:08.108Z,48.91
2019-05-12T12:43:08.096Z,48.00
2019-05-12T12:44:13.625Z,48.13
2019-05-12T12:45:08.091Z,48.54
2019-05-12T12:46:10.770Z,48.94
2019-05-12T12:47:09.052Z,49.16
2019-05-12T12:48:08.039Z,49.37
2019-05-12T12:49:10.355Z,49.47
2019-05-12T12:50:08.032Z,49.87
2019-05-12T12:51:08.007Z,49.87
2019-05-12T12:52:07.997Z,49.80